sensor_id;sensor_type;location;lat;lon;timestamp;P1;durP1;ratioP1;P2;durP2;ratioP2
62848;SDS011;48941;49.516;8.286;2023-04-03T00:01:18;5.28;;;2.80;;
62848;SDS011;48941;49.516;8.286;2023-04-03T00:03:46;4.28;;;3.10;;
62848;SDS011;48941;49.516;8.286;2023-04-03T00:06:14;3.58;;;2.85;;
62848;SDS011;48941;49.516;8.286;2023-04-03T00:08:41;4.72;;;3.10;;
62848;SDS011;48941;49.516;8.286;2023-04-03T00:11:11;3.67;;;2.78;;
62848;SDS011;48941;49.516;8.286;2023-04-03T00:13:39;3.95;;;2.80;;
62848;SDS011;48941;49.516;8.286;2023-04-03T00:16:07;4.93;;;3.25;;
62848;SDS011;48941;49.516;8.286;2023-04-03T00:18:35;5.50;;;2.97;;
62848;SDS011;48941;49.516;8.286;2023-04-03T00:21:04;4.10;;;3.00;;
62848;SDS011;48941;49.516;8.286;2023-04-03T00:23:33;5.05;;;2.85;;
62848;SDS011;48941;49.516;8.286;2023-04-03T00:26:01;3.47;;;3.15;;
62848;SDS011;48941;49.516;8.286;2023-04-03T00:28:30;4.38;;;3.20;;
62848;SDS011;48941;49.516;8.286;2023-04-03T00:30:58;3.90;;;2.95;;
62848;SDS011;48941;49.516;8.286;2023-04-03T00:33:26;6.18;;;3.10;;
62848;SDS011;48941;49.516;8.286;2023-04-03T00:35:54;4.28;;;2.85;;
62848;SDS011;48941;49.516;8.286;2023-04-03T00:38:22;4.35;;;3.00;;
62848;SDS011;48941;49.516;8.286;2023-04-03T00:40:49;6.68;;;2.90;;
62848;SDS011;48941;49.516;8.286;2023-04-03T00:43:18;4.38;;;3.00;;
62848;SDS011;48941;49.516;8.286;2023-04-03T00:45:49;4.57;;;2.80;;
62848;SDS011;48941;49.516;8.286;2023-04-03T00:48:20;3.92;;;2.90;;
62848;SDS011;48941;49.516;8.286;2023-04-03T00:50:49;3.85;;;3.03;;
62848;SDS011;48941;49.516;8.286;2023-04-03T00:53:19;4.85;;;3.10;;
62848;SDS011;48941;49.516;8.286;2023-04-03T00:55:51;3.90;;;3.08;;
62848;SDS011;48941;49.516;8.286;2023-04-03T00:58:21;5.70;;;3.30;;
62848;SDS011;48941;49.516;8.286;2023-04-03T01:00:57;4.40;;;3.30;;
62848;SDS011;48941;49.516;8.286;2023-04-03T01:03:26;3.92;;;3.50;;
62848;SDS011;48941;49.516;8.286;2023-04-03T01:05:53;3.55;;;3.22;;
62848;SDS011;48941;49.516;8.286;2023-04-03T01:08:21;4.25;;;3.58;;
62848;SDS011;48941;49.516;8.286;2023-04-03T01:10:49;5.65;;;3.40;;
62848;SDS011;48941;49.516;8.286;2023-04-03T01:13:19;4.07;;;3.28;;
62848;SDS011;48941;49.516;8.286;2023-04-03T01:15:48;4.97;;;3.63;;
62848;SDS011;48941;49.516;8.286;2023-04-03T01:18:17;7.18;;;3.53;;
62848;SDS011;48941;49.516;8.286;2023-04-03T01:21:05;8.13;;;3.35;;
62848;SDS011;48941;49.516;8.286;2023-04-03T01:24:03;5.28;;;3.40;;
62848;SDS011;48941;49.516;8.286;2023-04-03T01:26:47;7.38;;;3.60;;
62848;SDS011;48941;49.516;8.286;2023-04-03T01:29:16;5.40;;;3.63;;
62848;SDS011;48941;49.516;8.286;2023-04-03T01:31:50;5.55;;;3.60;;
62848;SDS011;48941;49.516;8.286;2023-04-03T01:34:19;6.07;;;3.92;;
62848;SDS011;48941;49.516;8.286;2023-04-03T01:36:47;5.10;;;3.72;;
62848;SDS011;48941;49.516;8.286;2023-04-03T01:39:15;5.20;;;3.72;;
62848;SDS011;48941;49.516;8.286;2023-04-03T01:41:42;5.72;;;3.60;;
62848;SDS011;48941;49.516;8.286;2023-04-03T01:44:11;6.38;;;3.88;;
62848;SDS011;48941;49.516;8.286;2023-04-03T01:46:39;6.18;;;4.00;;
62848;SDS011;48941;49.516;8.286;2023-04-03T01:49:09;6.70;;;3.70;;
62848;SDS011;48941;49.516;8.286;2023-04-03T01:51:37;4.90;;;3.60;;
62848;SDS011;48941;49.516;8.286;2023-04-03T01:54:05;5.07;;;3.97;;
62848;SDS011;48941;49.516;8.286;2023-04-03T01:56:33;6.68;;;3.90;;
62848;SDS011;48941;49.516;8.286;2023-04-03T01:59:00;6.72;;;4.05;;
62848;SDS011;48941;49.516;8.286;2023-04-03T02:01:28;5.38;;;3.78;;
62848;SDS011;48941;49.516;8.286;2023-04-03T02:03:56;4.05;;;3.58;;
62848;SDS011;48941;49.516;8.286;2023-04-03T02:06:25;5.38;;;3.58;;
62848;SDS011;48941;49.516;8.286;2023-04-03T02:08:53;3.90;;;3.35;;
62848;SDS011;48941;49.516;8.286;2023-04-03T02:11:21;7.13;;;4.00;;
62848;SDS011;48941;49.516;8.286;2023-04-03T02:13:48;3.72;;;3.30;;
62848;SDS011;48941;49.516;8.286;2023-04-03T02:16:16;6.60;;;3.80;;
62848;SDS011;48941;49.516;8.286;2023-04-03T02:18:44;11.18;;;4.00;;
62848;SDS011;48941;49.516;8.286;2023-04-03T02:21:11;4.90;;;3.65;;
62848;SDS011;48941;49.516;8.286;2023-04-03T02:23:41;8.15;;;3.97;;
62848;SDS011;48941;49.516;8.286;2023-04-03T02:26:09;6.57;;;4.03;;
62848;SDS011;48941;49.516;8.286;2023-04-03T02:28:38;7.47;;;3.70;;
62848;SDS011;48941;49.516;8.286;2023-04-03T02:31:07;7.43;;;3.83;;
62848;SDS011;48941;49.516;8.286;2023-04-03T02:33:36;7.50;;;3.72;;
62848;SDS011;48941;49.516;8.286;2023-04-03T02:36:05;5.13;;;3.58;;
62848;SDS011;48941;49.516;8.286;2023-04-03T02:38:34;5.55;;;3.83;;
62848;SDS011;48941;49.516;8.286;2023-04-03T02:41:03;5.35;;;3.60;;
62848;SDS011;48941;49.516;8.286;2023-04-03T02:43:33;8.60;;;3.63;;
62848;SDS011;48941;49.516;8.286;2023-04-03T02:46:02;4.85;;;3.47;;
62848;SDS011;48941;49.516;8.286;2023-04-03T02:48:31;6.43;;;3.83;;
62848;SDS011;48941;49.516;8.286;2023-04-03T02:50:58;5.03;;;3.47;;
62848;SDS011;48941;49.516;8.286;2023-04-03T02:53:27;6.47;;;3.63;;
62848;SDS011;48941;49.516;8.286;2023-04-03T02:55:55;5.30;;;3.65;;
62848;SDS011;48941;49.516;8.286;2023-04-03T02:58:24;5.57;;;3.40;;
62848;SDS011;48941;49.516;8.286;2023-04-03T03:00:52;5.10;;;3.80;;
62848;SDS011;48941;49.516;8.286;2023-04-03T03:03:19;4.03;;;3.20;;
62848;SDS011;48941;49.516;8.286;2023-04-03T03:05:47;5.80;;;3.50;;
62848;SDS011;48941;49.516;8.286;2023-04-03T03:08:15;4.10;;;3.03;;
62848;SDS011;48941;49.516;8.286;2023-04-03T03:10:46;3.97;;;2.97;;
62848;SDS011;48941;49.516;8.286;2023-04-03T03:13:14;7.05;;;3.30;;
62848;SDS011;48941;49.516;8.286;2023-04-03T03:15:43;4.45;;;3.10;;
62848;SDS011;48941;49.516;8.286;2023-04-03T03:18:10;4.28;;;3.05;;
62848;SDS011;48941;49.516;8.286;2023-04-03T03:20:38;5.07;;;3.17;;
62848;SDS011;48941;49.516;8.286;2023-04-03T03:23:06;6.30;;;3.10;;
62848;SDS011;48941;49.516;8.286;2023-04-03T03:25:37;4.25;;;3.17;;
62848;SDS011;48941;49.516;8.286;2023-04-03T03:28:05;6.20;;;3.38;;
62848;SDS011;48941;49.516;8.286;2023-04-03T03:30:33;5.60;;;3.15;;
62848;SDS011;48941;49.516;8.286;2023-04-03T03:33:03;4.15;;;2.85;;
62848;SDS011;48941;49.516;8.286;2023-04-03T03:35:31;9.02;;;3.30;;
62848;SDS011;48941;49.516;8.286;2023-04-03T03:37:59;6.50;;;3.35;;
62848;SDS011;48941;49.516;8.286;2023-04-03T03:40:27;7.05;;;3.00;;
62848;SDS011;48941;49.516;8.286;2023-04-03T03:42:55;4.55;;;3.17;;
62848;SDS011;48941;49.516;8.286;2023-04-03T03:45:23;4.65;;;2.97;;
62848;SDS011;48941;49.516;8.286;2023-04-03T03:47:51;6.30;;;3.40;;
62848;SDS011;48941;49.516;8.286;2023-04-03T03:50:21;5.25;;;3.55;;
62848;SDS011;48941;49.516;8.286;2023-04-03T03:52:48;4.05;;;3.08;;
62848;SDS011;48941;49.516;8.286;2023-04-03T03:55:16;4.78;;;3.10;;
62848;SDS011;48941;49.516;8.286;2023-04-03T03:57:44;6.50;;;3.55;;
62848;SDS011;48941;49.516;8.286;2023-04-03T04:00:12;5.63;;;3.42;;
62848;SDS011;48941;49.516;8.286;2023-04-03T04:02:41;4.65;;;3.13;;
62848;SDS011;48941;49.516;8.286;2023-04-03T04:05:09;5.65;;;3.33;;
62848;SDS011;48941;49.516;8.286;2023-04-03T04:07:38;4.43;;;3.20;;
62848;SDS011;48941;49.516;8.286;2023-04-03T04:10:06;4.70;;;3.17;;
62848;SDS011;48941;49.516;8.286;2023-04-03T04:12:35;5.82;;;3.40;;
62848;SDS011;48941;49.516;8.286;2023-04-03T04:15:03;3.70;;;3.15;;
62848;SDS011;48941;49.516;8.286;2023-04-03T04:17:31;5.35;;;3.33;;
62848;SDS011;48941;49.516;8.286;2023-04-03T04:19:59;7.57;;;3.88;;
62848;SDS011;48941;49.516;8.286;2023-04-03T04:22:26;6.38;;;3.67;;
62848;SDS011;48941;49.516;8.286;2023-04-03T04:24:55;6.63;;;3.38;;
62848;SDS011;48941;49.516;8.286;2023-04-03T04:27:23;6.63;;;3.42;;
62848;SDS011;48941;49.516;8.286;2023-04-03T04:29:51;7.80;;;3.63;;
62848;SDS011;48941;49.516;8.286;2023-04-03T04:32:19;5.38;;;3.60;;
62848;SDS011;48941;49.516;8.286;2023-04-03T04:34:46;6.63;;;3.80;;
62848;SDS011;48941;49.516;8.286;2023-04-03T04:37:14;5.18;;;3.42;;
62848;SDS011;48941;49.516;8.286;2023-04-03T04:39:42;6.43;;;4.57;;
62848;SDS011;48941;49.516;8.286;2023-04-03T04:42:11;7.50;;;3.85;;
62848;SDS011;48941;49.516;8.286;2023-04-03T04:47:10;5.15;;;3.45;;
62848;SDS011;48941;49.516;8.286;2023-04-03T04:49:38;8.43;;;3.50;;
62848;SDS011;48941;49.516;8.286;2023-04-03T04:52:05;8.60;;;3.60;;
62848;SDS011;48941;49.516;8.286;2023-04-03T04:54:33;10.73;;;3.28;;
62848;SDS011;48941;49.516;8.286;2023-04-03T04:57:01;5.22;;;3.38;;
62848;SDS011;48941;49.516;8.286;2023-04-03T04:59:30;6.93;;;3.97;;
62848;SDS011;48941;49.516;8.286;2023-04-03T05:01:58;9.90;;;3.33;;
62848;SDS011;48941;49.516;8.286;2023-04-03T05:04:27;6.05;;;3.47;;
62848;SDS011;48941;49.516;8.286;2023-04-03T05:06:55;5.45;;;3.47;;
62848;SDS011;48941;49.516;8.286;2023-04-03T05:09:23;4.97;;;3.20;;
62848;SDS011;48941;49.516;8.286;2023-04-03T05:11:51;5.35;;;3.55;;
62848;SDS011;48941;49.516;8.286;2023-04-03T05:14:18;9.52;;;3.30;;
62848;SDS011;48941;49.516;8.286;2023-04-03T05:16:48;8.98;;;3.47;;
62848;SDS011;48941;49.516;8.286;2023-04-03T05:19:19;6.32;;;3.65;;
62848;SDS011;48941;49.516;8.286;2023-04-03T05:21:47;8.80;;;3.72;;
62848;SDS011;48941;49.516;8.286;2023-04-03T05:24:15;5.82;;;3.83;;
62848;SDS011;48941;49.516;8.286;2023-04-03T05:26:43;7.13;;;3.45;;
62848;SDS011;48941;49.516;8.286;2023-04-03T05:29:11;7.30;;;3.58;;
62848;SDS011;48941;49.516;8.286;2023-04-03T05:31:39;5.60;;;3.88;;
62848;SDS011;48941;49.516;8.286;2023-04-03T05:34:08;7.13;;;3.40;;
62848;SDS011;48941;49.516;8.286;2023-04-03T05:36:36;7.70;;;3.28;;
62848;SDS011;48941;49.516;8.286;2023-04-03T05:39:04;7.38;;;3.53;;
62848;SDS011;48941;49.516;8.286;2023-04-03T05:41:32;7.20;;;3.72;;
62848;SDS011;48941;49.516;8.286;2023-04-03T05:44:00;7.80;;;3.53;;
62848;SDS011;48941;49.516;8.286;2023-04-03T05:46:28;7.13;;;3.63;;
62848;SDS011;48941;49.516;8.286;2023-04-03T05:48:56;4.03;;;3.10;;
62848;SDS011;48941;49.516;8.286;2023-04-03T05:51:25;8.68;;;3.72;;
62848;SDS011;48941;49.516;8.286;2023-04-03T05:53:58;6.75;;;3.65;;
62848;SDS011;48941;49.516;8.286;2023-04-03T05:56:30;5.85;;;3.10;;
62848;SDS011;48941;49.516;8.286;2023-04-03T05:58:58;6.00;;;3.42;;
62848;SDS011;48941;49.516;8.286;2023-04-03T06:01:26;6.03;;;3.22;;
62848;SDS011;48941;49.516;8.286;2023-04-03T06:03:54;6.65;;;3.65;;
62848;SDS011;48941;49.516;8.286;2023-04-03T06:06:22;6.90;;;3.42;;
62848;SDS011;48941;49.516;8.286;2023-04-03T06:08:51;6.07;;;3.35;;
62848;SDS011;48941;49.516;8.286;2023-04-03T06:11:19;6.95;;;3.15;;
62848;SDS011;48941;49.516;8.286;2023-04-03T06:13:47;10.40;;;3.35;;
62848;SDS011;48941;49.516;8.286;2023-04-03T06:16:15;6.53;;;3.15;;
62848;SDS011;48941;49.516;8.286;2023-04-03T06:18:44;8.77;;;3.58;;
62848;SDS011;48941;49.516;8.286;2023-04-03T06:21:12;29.35;;;5.10;;
62848;SDS011;48941;49.516;8.286;2023-04-03T06:23:40;7.28;;;3.20;;
62848;SDS011;48941;49.516;8.286;2023-04-03T06:26:09;6.15;;;3.30;;
62848;SDS011;48941;49.516;8.286;2023-04-03T06:28:37;5.82;;;3.47;;
62848;SDS011;48941;49.516;8.286;2023-04-03T06:31:04;7.03;;;3.30;;
62848;SDS011;48941;49.516;8.286;2023-04-03T06:33:32;7.50;;;3.25;;
62848;SDS011;48941;49.516;8.286;2023-04-03T06:36:03;4.85;;;3.05;;
62848;SDS011;48941;49.516;8.286;2023-04-03T06:38:33;7.07;;;3.22;;
62848;SDS011;48941;49.516;8.286;2023-04-03T06:41:01;5.20;;;3.35;;
62848;SDS011;48941;49.516;8.286;2023-04-03T06:43:30;3.95;;;3.25;;
62848;SDS011;48941;49.516;8.286;2023-04-03T06:46:00;7.22;;;3.47;;
62848;SDS011;48941;49.516;8.286;2023-04-03T06:48:28;4.97;;;3.17;;
62848;SDS011;48941;49.516;8.286;2023-04-03T06:50:56;6.53;;;3.22;;
62848;SDS011;48941;49.516;8.286;2023-04-03T06:53:24;4.72;;;3.22;;
62848;SDS011;48941;49.516;8.286;2023-04-03T06:55:52;6.22;;;3.22;;
62848;SDS011;48941;49.516;8.286;2023-04-03T06:58:20;7.25;;;3.47;;
62848;SDS011;48941;49.516;8.286;2023-04-03T07:00:52;3.75;;;2.97;;
62848;SDS011;48941;49.516;8.286;2023-04-03T07:03:20;6.40;;;3.00;;
62848;SDS011;48941;49.516;8.286;2023-04-03T07:05:48;6.85;;;3.13;;
62848;SDS011;48941;49.516;8.286;2023-04-03T07:08:16;5.80;;;2.70;;
62848;SDS011;48941;49.516;8.286;2023-04-03T07:10:43;5.10;;;2.78;;
62848;SDS011;48941;49.516;8.286;2023-04-03T07:13:11;6.57;;;2.88;;
62848;SDS011;48941;49.516;8.286;2023-04-03T07:15:39;4.07;;;2.88;;
62848;SDS011;48941;49.516;8.286;2023-04-03T07:18:08;10.73;;;3.03;;
62848;SDS011;48941;49.516;8.286;2023-04-03T07:20:36;4.32;;;2.70;;
62848;SDS011;48941;49.516;8.286;2023-04-03T07:23:04;5.95;;;2.55;;
62848;SDS011;48941;49.516;8.286;2023-04-03T07:25:31;5.40;;;2.70;;
62848;SDS011;48941;49.516;8.286;2023-04-03T07:28:01;4.78;;;2.72;;
62848;SDS011;48941;49.516;8.286;2023-04-03T07:30:29;3.22;;;2.63;;
62848;SDS011;48941;49.516;8.286;2023-04-03T07:32:57;7.95;;;2.97;;
62848;SDS011;48941;49.516;8.286;2023-04-03T07:35:26;5.25;;;3.00;;
62848;SDS011;48941;49.516;8.286;2023-04-03T07:37:54;6.05;;;2.70;;
62848;SDS011;48941;49.516;8.286;2023-04-03T07:40:22;7.30;;;2.90;;
62848;SDS011;48941;49.516;8.286;2023-04-03T07:42:49;4.78;;;2.63;;
62848;SDS011;48941;49.516;8.286;2023-04-03T07:45:18;13.63;;;3.30;;
62848;SDS011;48941;49.516;8.286;2023-04-03T07:47:46;11.60;;;2.97;;
62848;SDS011;48941;49.516;8.286;2023-04-03T07:50:14;6.85;;;2.95;;
62848;SDS011;48941;49.516;8.286;2023-04-03T07:52:44;6.22;;;2.92;;
62848;SDS011;48941;49.516;8.286;2023-04-03T07:55:13;3.78;;;3.03;;
62848;SDS011;48941;49.516;8.286;2023-04-03T07:57:41;5.45;;;3.25;;
62848;SDS011;48941;49.516;8.286;2023-04-03T08:00:09;7.07;;;2.65;;
62848;SDS011;48941;49.516;8.286;2023-04-03T08:02:38;10.13;;;3.33;;
62848;SDS011;48941;49.516;8.286;2023-04-03T08:05:06;5.47;;;2.85;;
62848;SDS011;48941;49.516;8.286;2023-04-03T08:07:36;10.13;;;3.03;;
62848;SDS011;48941;49.516;8.286;2023-04-03T08:10:05;7.93;;;2.85;;
62848;SDS011;48941;49.516;8.286;2023-04-03T08:12:34;7.28;;;2.67;;
62848;SDS011;48941;49.516;8.286;2023-04-03T08:15:03;11.70;;;3.30;;
62848;SDS011;48941;49.516;8.286;2023-04-03T08:17:31;6.65;;;3.28;;
62848;SDS011;48941;49.516;8.286;2023-04-03T08:19:59;6.43;;;3.20;;
62848;SDS011;48941;49.516;8.286;2023-04-03T08:22:27;5.60;;;2.72;;
62848;SDS011;48941;49.516;8.286;2023-04-03T08:24:55;6.55;;;2.70;;
62848;SDS011;48941;49.516;8.286;2023-04-03T08:27:26;5.85;;;2.90;;
62848;SDS011;48941;49.516;8.286;2023-04-03T08:29:54;6.68;;;3.10;;
62848;SDS011;48941;49.516;8.286;2023-04-03T08:32:24;4.47;;;2.80;;
62848;SDS011;48941;49.516;8.286;2023-04-03T08:34:52;3.80;;;2.70;;
62848;SDS011;48941;49.516;8.286;2023-04-03T08:37:19;5.82;;;2.65;;
62848;SDS011;48941;49.516;8.286;2023-04-03T08:39:47;5.30;;;2.72;;
62848;SDS011;48941;49.516;8.286;2023-04-03T08:42:19;5.43;;;2.70;;
62848;SDS011;48941;49.516;8.286;2023-04-03T08:44:56;8.73;;;3.00;;
62848;SDS011;48941;49.516;8.286;2023-04-03T08:47:32;5.45;;;2.50;;
62848;SDS011;48941;49.516;8.286;2023-04-03T08:50:06;5.88;;;2.50;;
62848;SDS011;48941;49.516;8.286;2023-04-03T08:52:41;4.70;;;2.55;;
62848;SDS011;48941;49.516;8.286;2023-04-03T08:55:14;6.72;;;2.50;;
62848;SDS011;48941;49.516;8.286;2023-04-03T08:57:50;5.85;;;2.55;;
62848;SDS011;48941;49.516;8.286;2023-04-03T09:00:25;4.95;;;2.20;;
62848;SDS011;48941;49.516;8.286;2023-04-03T09:02:56;6.22;;;2.30;;
62848;SDS011;48941;49.516;8.286;2023-04-03T09:05:29;6.80;;;2.45;;
62848;SDS011;48941;49.516;8.286;2023-04-03T09:08:07;4.32;;;2.38;;
62848;SDS011;48941;49.516;8.286;2023-04-03T09:10:44;4.15;;;2.30;;
62848;SDS011;48941;49.516;8.286;2023-04-03T09:13:13;3.63;;;2.10;;
62848;SDS011;48941;49.516;8.286;2023-04-03T09:15:53;4.50;;;1.90;;
62848;SDS011;48941;49.516;8.286;2023-04-03T09:18:25;2.13;;;1.80;;
62848;SDS011;48941;49.516;8.286;2023-04-03T09:20:57;2.55;;;1.65;;
62848;SDS011;48941;49.516;8.286;2023-04-03T09:23:34;3.53;;;1.83;;
62848;SDS011;48941;49.516;8.286;2023-04-03T09:26:07;25.52;;;5.25;;
62848;SDS011;48941;49.516;8.286;2023-04-03T09:28:40;4.65;;;1.98;;
62848;SDS011;48941;49.516;8.286;2023-04-03T09:31:19;2.67;;;1.83;;
62848;SDS011;48941;49.516;8.286;2023-04-03T09:33:49;5.07;;;1.80;;
62848;SDS011;48941;49.516;8.286;2023-04-03T09:39:11;5.03;;;2.13;;
62848;SDS011;48941;49.516;8.286;2023-04-03T09:41:41;2.00;;;1.80;;
62848;SDS011;48941;49.516;8.286;2023-04-03T09:44:23;4.53;;;1.85;;
62848;SDS011;48941;49.516;8.286;2023-04-03T09:46:53;3.53;;;2.38;;
62848;SDS011;48941;49.516;8.286;2023-04-03T09:49:21;5.38;;;1.85;;
62848;SDS011;48941;49.516;8.286;2023-04-03T09:51:49;6.03;;;1.70;;
62848;SDS011;48941;49.516;8.286;2023-04-03T09:57:06;3.30;;;1.95;;
62848;SDS011;48941;49.516;8.286;2023-04-03T09:59:37;4.47;;;1.83;;
62848;SDS011;48941;49.516;8.286;2023-04-03T10:02:21;3.97;;;1.77;;
62848;SDS011;48941;49.516;8.286;2023-04-03T10:04:55;4.07;;;1.77;;
62848;SDS011;48941;49.516;8.286;2023-04-03T10:07:32;4.97;;;1.90;;
62848;SDS011;48941;49.516;8.286;2023-04-03T10:10:21;4.05;;;1.98;;
62848;SDS011;48941;49.516;8.286;2023-04-03T10:13:03;4.50;;;2.00;;
62848;SDS011;48941;49.516;8.286;2023-04-03T10:15:36;7.60;;;2.40;;
62848;SDS011;48941;49.516;8.286;2023-04-03T10:18:16;6.05;;;2.35;;
62848;SDS011;48941;49.516;8.286;2023-04-03T10:20:56;6.57;;;1.90;;
62848;SDS011;48941;49.516;8.286;2023-04-03T10:23:33;3.78;;;1.67;;
62848;SDS011;48941;49.516;8.286;2023-04-03T10:26:09;4.00;;;1.83;;
62848;SDS011;48941;49.516;8.286;2023-04-03T10:28:44;2.88;;;1.75;;
62848;SDS011;48941;49.516;8.286;2023-04-03T10:31:18;2.25;;;1.60;;
62848;SDS011;48941;49.516;8.286;2023-04-03T10:33:56;4.72;;;1.83;;
62848;SDS011;48941;49.516;8.286;2023-04-03T10:36:37;6.43;;;2.17;;
62848;SDS011;48941;49.516;8.286;2023-04-03T10:39:14;3.75;;;1.90;;
62848;SDS011;48941;49.516;8.286;2023-04-03T10:41:56;2.88;;;1.70;;
62848;SDS011;48941;49.516;8.286;2023-04-03T10:44:43;3.63;;;1.67;;
62848;SDS011;48941;49.516;8.286;2023-04-03T10:47:31;4.25;;;2.00;;
62848;SDS011;48941;49.516;8.286;2023-04-03T10:50:10;2.97;;;1.85;;
62848;SDS011;48941;49.516;8.286;2023-04-03T10:52:52;3.97;;;1.60;;
62848;SDS011;48941;49.516;8.286;2023-04-03T10:55:31;3.50;;;1.70;;
62848;SDS011;48941;49.516;8.286;2023-04-03T10:58:03;3.22;;;1.80;;
62848;SDS011;48941;49.516;8.286;2023-04-03T11:00:35;2.25;;;1.70;;
62848;SDS011;48941;49.516;8.286;2023-04-03T11:03:08;3.88;;;1.80;;
62848;SDS011;48941;49.516;8.286;2023-04-03T11:05:44;4.47;;;1.52;;
62848;SDS011;48941;49.516;8.286;2023-04-03T11:08:18;3.65;;;1.67;;
62848;SDS011;48941;49.516;8.286;2023-04-03T11:10:54;3.17;;;1.63;;
62848;SDS011;48941;49.516;8.286;2023-04-03T11:13:26;4.15;;;1.70;;
62848;SDS011;48941;49.516;8.286;2023-04-03T11:15:58;3.13;;;1.50;;
62848;SDS011;48941;49.516;8.286;2023-04-03T11:18:27;2.13;;;1.80;;
62848;SDS011;48941;49.516;8.286;2023-04-03T11:21:03;5.72;;;2.03;;
62848;SDS011;48941;49.516;8.286;2023-04-03T11:23:36;3.03;;;1.80;;
62848;SDS011;48941;49.516;8.286;2023-04-03T11:26:15;2.72;;;1.77;;
62848;SDS011;48941;49.516;8.286;2023-04-03T11:28:45;3.03;;;1.80;;
62848;SDS011;48941;49.516;8.286;2023-04-03T11:31:15;2.75;;;1.60;;
62848;SDS011;48941;49.516;8.286;2023-04-03T11:33:58;2.60;;;1.58;;
62848;SDS011;48941;49.516;8.286;2023-04-03T11:36:40;7.68;;;1.58;;
62848;SDS011;48941;49.516;8.286;2023-04-03T11:39:16;1.52;;;1.40;;
62848;SDS011;48941;49.516;8.286;2023-04-03T11:41:48;2.70;;;1.55;;
62848;SDS011;48941;49.516;8.286;2023-04-03T11:44:30;2.90;;;1.70;;
62848;SDS011;48941;49.516;8.286;2023-04-03T11:47:02;1.67;;;1.58;;
62848;SDS011;48941;49.516;8.286;2023-04-03T11:49:50;1.88;;;1.52;;
62848;SDS011;48941;49.516;8.286;2023-04-03T11:58:30;3.80;;;1.65;;
62848;SDS011;48941;49.516;8.286;2023-04-03T12:01:06;5.13;;;1.90;;
62848;SDS011;48941;49.516;8.286;2023-04-03T12:12:30;3.25;;;1.80;;
62848;SDS011;48941;49.516;8.286;2023-04-03T12:17:53;3.20;;;1.90;;
62848;SDS011;48941;49.516;8.286;2023-04-03T12:23:27;3.03;;;1.70;;
62848;SDS011;48941;49.516;8.286;2023-04-03T12:26:03;2.25;;;1.77;;
62848;SDS011;48941;49.516;8.286;2023-04-03T12:28:37;2.47;;;1.50;;
62848;SDS011;48941;49.516;8.286;2023-04-03T12:31:08;4.35;;;1.90;;
62848;SDS011;48941;49.516;8.286;2023-04-03T12:33:43;3.75;;;1.80;;
62848;SDS011;48941;49.516;8.286;2023-04-03T12:36:35;2.75;;;1.50;;
62848;SDS011;48941;49.516;8.286;2023-04-03T12:39:16;2.42;;;1.73;;
62848;SDS011;48941;49.516;8.286;2023-04-03T12:42:11;1.60;;;1.50;;
62848;SDS011;48941;49.516;8.286;2023-04-03T12:44:55;3.33;;;1.77;;
62848;SDS011;48941;49.516;8.286;2023-04-03T12:47:30;3.70;;;2.20;;
62848;SDS011;48941;49.516;8.286;2023-04-03T12:50:02;4.18;;;1.92;;
62848;SDS011;48941;49.516;8.286;2023-04-03T12:52:32;3.88;;;2.10;;
62848;SDS011;48941;49.516;8.286;2023-04-03T12:55:07;4.13;;;2.17;;
62848;SDS011;48941;49.516;8.286;2023-04-03T12:57:44;4.38;;;1.90;;
62848;SDS011;48941;49.516;8.286;2023-04-03T13:00:18;4.97;;;1.92;;
62848;SDS011;48941;49.516;8.286;2023-04-03T13:02:56;2.38;;;1.80;;
62848;SDS011;48941;49.516;8.286;2023-04-03T13:05:24;2.47;;;1.80;;
62848;SDS011;48941;49.516;8.286;2023-04-03T13:07:54;1.85;;;1.60;;
62848;SDS011;48941;49.516;8.286;2023-04-03T13:10:26;5.68;;;2.53;;
62848;SDS011;48941;49.516;8.286;2023-04-03T13:12:54;2.20;;;1.70;;
62848;SDS011;48941;49.516;8.286;2023-04-03T13:15:24;2.78;;;1.70;;
62848;SDS011;48941;49.516;8.286;2023-04-03T13:17:55;5.15;;;1.92;;
62848;SDS011;48941;49.516;8.286;2023-04-03T13:20:25;3.92;;;1.77;;
62848;SDS011;48941;49.516;8.286;2023-04-03T13:22:56;14.63;;;2.67;;
62848;SDS011;48941;49.516;8.286;2023-04-03T13:25:27;4.22;;;1.90;;
62848;SDS011;48941;49.516;8.286;2023-04-03T13:27:58;3.88;;;1.98;;
62848;SDS011;48941;49.516;8.286;2023-04-03T13:30:39;2.78;;;2.30;;
62848;SDS011;48941;49.516;8.286;2023-04-03T13:33:20;3.00;;;2.00;;
62848;SDS011;48941;49.516;8.286;2023-04-03T13:38:24;3.97;;;2.53;;
62848;SDS011;48941;49.516;8.286;2023-04-03T13:40:53;3.28;;;2.30;;
62848;SDS011;48941;49.516;8.286;2023-04-03T13:43:25;5.55;;;4.15;;
62848;SDS011;48941;49.516;8.286;2023-04-03T13:45:58;4.53;;;3.20;;
62848;SDS011;48941;49.516;8.286;2023-04-03T13:48:39;9.18;;;2.22;;
62848;SDS011;48941;49.516;8.286;2023-04-03T13:51:17;5.55;;;3.33;;
62848;SDS011;48941;49.516;8.286;2023-04-03T13:53:48;8.98;;;1.80;;
62848;SDS011;48941;49.516;8.286;2023-04-03T13:56:19;2.13;;;1.90;;
62848;SDS011;48941;49.516;8.286;2023-04-03T13:58:54;4.55;;;2.00;;
62848;SDS011;48941;49.516;8.286;2023-04-03T14:01:24;4.30;;;2.00;;
62848;SDS011;48941;49.516;8.286;2023-04-03T14:03:56;2.28;;;1.80;;
62848;SDS011;48941;49.516;8.286;2023-04-03T14:06:25;7.00;;;2.05;;
62848;SDS011;48941;49.516;8.286;2023-04-03T14:08:53;3.38;;;2.08;;
62848;SDS011;48941;49.516;8.286;2023-04-03T14:11:22;2.72;;;2.03;;
62848;SDS011;48941;49.516;8.286;2023-04-03T14:13:53;20.00;;;2.92;;
62848;SDS011;48941;49.516;8.286;2023-04-03T14:16:23;4.28;;;1.98;;
62848;SDS011;48941;49.516;8.286;2023-04-03T14:18:56;3.25;;;2.00;;
62848;SDS011;48941;49.516;8.286;2023-04-03T14:21:24;5.18;;;2.47;;
62848;SDS011;48941;49.516;8.286;2023-04-03T14:23:52;16.90;;;2.45;;
62848;SDS011;48941;49.516;8.286;2023-04-03T14:26:20;4.32;;;2.90;;
62848;SDS011;48941;49.516;8.286;2023-04-03T14:28:51;5.57;;;1.90;;
62848;SDS011;48941;49.516;8.286;2023-04-03T14:31:21;1.73;;;1.63;;
62848;SDS011;48941;49.516;8.286;2023-04-03T14:33:50;2.97;;;2.22;;
62848;SDS011;48941;49.516;8.286;2023-04-03T14:36:20;2.83;;;2.00;;
62848;SDS011;48941;49.516;8.286;2023-04-03T14:38:51;3.28;;;2.10;;
62848;SDS011;48941;49.516;8.286;2023-04-03T14:41:20;3.35;;;1.95;;
62848;SDS011;48941;49.516;8.286;2023-04-03T14:43:50;4.35;;;2.35;;
62848;SDS011;48941;49.516;8.286;2023-04-03T14:46:19;2.42;;;1.80;;
62848;SDS011;48941;49.516;8.286;2023-04-03T14:48:57;3.90;;;2.10;;
62848;SDS011;48941;49.516;8.286;2023-04-03T14:51:26;4.60;;;1.90;;
62848;SDS011;48941;49.516;8.286;2023-04-03T14:53:54;3.53;;;1.90;;
62848;SDS011;48941;49.516;8.286;2023-04-03T14:56:22;4.15;;;1.90;;
62848;SDS011;48941;49.516;8.286;2023-04-03T14:58:53;3.00;;;1.98;;
62848;SDS011;48941;49.516;8.286;2023-04-03T15:01:23;12.07;;;2.22;;
62848;SDS011;48941;49.516;8.286;2023-04-03T15:03:51;2.25;;;1.70;;
62848;SDS011;48941;49.516;8.286;2023-04-03T15:06:20;2.65;;;2.28;;
62848;SDS011;48941;49.516;8.286;2023-04-03T15:08:49;6.70;;;2.40;;
62848;SDS011;48941;49.516;8.286;2023-04-03T15:11:17;5.65;;;3.00;;
62848;SDS011;48941;49.516;8.286;2023-04-03T15:13:45;3.45;;;2.30;;
62848;SDS011;48941;49.516;8.286;2023-04-03T15:16:14;2.38;;;1.95;;
62848;SDS011;48941;49.516;8.286;2023-04-03T15:18:45;3.40;;;2.05;;
62848;SDS011;48941;49.516;8.286;2023-04-03T15:21:14;6.47;;;3.08;;
62848;SDS011;48941;49.516;8.286;2023-04-03T15:23:42;8.45;;;3.63;;
62848;SDS011;48941;49.516;8.286;2023-04-03T15:26:12;11.02;;;4.50;;
62848;SDS011;48941;49.516;8.286;2023-04-03T15:28:40;6.47;;;3.78;;
62848;SDS011;48941;49.516;8.286;2023-04-03T15:31:10;5.10;;;2.20;;
62848;SDS011;48941;49.516;8.286;2023-04-03T15:33:38;3.10;;;2.10;;
62848;SDS011;48941;49.516;8.286;2023-04-03T15:36:06;3.60;;;1.90;;
62848;SDS011;48941;49.516;8.286;2023-04-03T15:38:54;2.22;;;2.03;;
62848;SDS011;48941;49.516;8.286;2023-04-03T15:41:23;2.60;;;2.00;;